CheckWX is a tool to help pilots better visualize weather data.  It is not intended as a substitute for an official pre-flight weather briefing.

07:13:29 UTC

KVNY TAF
Van Nuys Airport
Van Nuys, California, USA
KVNY 150545Z 1506/1606 VRB03KT P6SM BKN200 FM150900 VRB03KT 3SM BR OVC010 FM151800 14008KT P6SM BKN200 FM160200 VRB03KT P6SM SKC

Nov-15@
06:00 UTC

Nov-15 @ 06:00 UTC

Nov-15@
09:00 UTC

Nov-15 @ 09:00 UTC

KVNY 150545Z 1506/1606 VRB03KT P6SM BKN200
Wind
  • Variable at 3 KTS
Cloud Levels
  • Broken at 20,000' AGL

Nov-15@
09:00 UTC

Nov-15 @ 09:00 UTC

Nov-15@
18:00 UTC

Nov-15 @ 18:00 UTC

FM150900 VRB03KT 3SM BR OVC010

From

From Standard forecast or significant change

Wind
  • Variable at 3 KTS
Conditions
Mist
Cloud Levels
  • Overcast at 1,000' AGL

Nov-15@
18:00 UTC

Nov-15 @ 18:00 UTC

Nov-16@
02:00 UTC

Nov-16 @ 02:00 UTC

FM151800 14008KT P6SM BKN200

From

From Standard forecast or significant change

Wind
  • 140° at 8 KTS
Cloud Levels
  • Broken at 20,000' AGL

Nov-16@
02:00 UTC

Nov-16 @ 02:00 UTC

Nov-16@
06:00 UTC

Nov-16 @ 06:00 UTC

FM160200 VRB03KT P6SM SKC

From

From Standard forecast or significant change

Wind
  • Variable at 3 KTS
Cloud Levels
  • Clear skies